createdAt,value
2022-09-05T00:02:01.411Z,12.28
2022-09-05T00:04:53.448Z,12.15
2022-09-05T00:07:59.783Z,12.22
2022-09-05T00:10:25.667Z,12.16
2022-09-05T00:13:07.172Z,12.18
2022-09-05T00:16:01.644Z,12.34
2022-09-05T00:24:18.541Z,12.15
2022-09-05T00:24:30.625Z,12.09
2022-09-05T00:25:14.880Z,12.16
2022-09-05T00:27:58.905Z,11.99
2022-09-05T00:31:07.532Z,12.00
2022-09-05T00:34:10.184Z,12.08
2022-09-05T00:36:39.813Z,12.06
2022-09-05T00:39:12.767Z,12.07
2022-09-05T00:41:39.878Z,12.11
2022-09-05T00:44:07.060Z,12.13
2022-09-05T00:46:37.513Z,12.17
2022-09-05T00:49:31.993Z,12.02
2022-09-05T00:52:01.599Z,11.91
2022-09-05T00:55:02.557Z,12.08
2022-09-05T00:57:41.239Z,12.03
2022-09-05T01:00:17.926Z,12.00
2022-09-05T01:03:10.039Z,11.97
2022-09-05T01:06:14.925Z,11.86
2022-09-05T01:09:08.210Z,11.82
2022-09-05T01:12:09.136Z,11.82
2022-09-05T01:14:35.640Z,11.87
2022-09-05T01:17:21.002Z,11.70
2022-09-05T01:20:19.112Z,11.62
2022-09-05T01:23:18.215Z,11.69
2022-09-05T01:26:21.883Z,11.90
2022-09-05T01:29:17.907Z,11.59
2022-09-05T01:32:02.507Z,11.73
2022-09-05T01:34:56.464Z,11.69
2022-09-05T01:37:33.999Z,11.61
2022-09-05T01:40:19.899Z,11.59
2022-09-05T01:43:06.256Z,11.53
2022-09-05T01:46:01.189Z,11.47
2022-09-05T01:48:46.286Z,11.47
2022-09-05T01:51:35.542Z,11.53
2022-09-05T01:54:24.622Z,11.48
2022-09-05T01:57:02.299Z,11.52
2022-09-05T01:59:39.714Z,11.47
2022-09-05T02:02:23.299Z,11.48
2022-09-05T02:05:11.902Z,11.43
2022-09-05T02:08:04.603Z,11.35
2022-09-05T02:10:39.805Z,11.26
2022-09-05T02:13:24.299Z,11.31
2022-09-05T02:15:59.782Z,11.25
2022-09-05T02:18:52.347Z,11.20
2022-09-05T02:21:36.697Z,11.13
2022-09-05T02:24:45.618Z,11.09
2022-09-05T02:27:45.865Z,11.07
2022-09-05T02:30:17.288Z,11.08
2022-09-05T02:32:51.550Z,11.02
2022-09-05T02:35:24.098Z,10.95
2022-09-05T02:38:31.736Z,11.09
2022-09-05T02:45:07.354Z,10.99
2022-09-05T02:45:07.590Z,10.87
2022-09-05T02:47:00.454Z,10.85
2022-09-05T02:51:04.156Z,10.86
2022-09-05T02:57:29.017Z,10.82
2022-09-05T02:57:40.980Z,10.80
2022-09-05T02:58:21.835Z,10.84
2022-09-05T03:01:04.301Z,10.86
2022-09-05T03:03:37.175Z,10.67
2022-09-05T03:06:35.146Z,10.65
2022-09-05T03:09:17.356Z,10.70
2022-09-05T03:12:28.375Z,10.62
2022-09-05T03:15:18.450Z,10.52
2022-09-05T03:18:20.025Z,10.56
2022-09-05T03:21:15.949Z,10.61
2022-09-05T03:24:01.419Z,10.60
2022-09-05T03:26:44.003Z,10.60
2022-09-05T03:29:25.822Z,10.54
2022-09-05T03:32:11.066Z,10.51
2022-09-05T03:34:53.667Z,10.58
2022-09-05T03:37:59.299Z,10.57
2022-09-05T03:40:46.842Z,10.58
2022-09-05T03:43:34.848Z,10.65
2022-09-05T03:46:08.218Z,10.41
2022-09-05T03:48:44.074Z,10.48
2022-09-05T03:57:04.745Z,10.39
2022-09-05T03:57:13.960Z,10.55
2022-09-05T03:57:41.746Z,10.62
2022-09-05T04:00:21.653Z,10.50
2022-09-05T04:08:15.054Z,10.69
2022-09-05T04:08:27.564Z,10.65
2022-09-05T04:09:04.101Z,10.67
2022-09-05T04:11:35.742Z,10.62
2022-09-05T04:14:07.028Z,10.66
2022-09-05T04:16:45.023Z,10.68
2022-09-05T04:19:18.192Z,10.57
2022-09-05T04:21:55.855Z,10.61
2022-09-05T04:24:36.822Z,10.61
2022-09-05T04:27:45.152Z,10.59
2022-09-05T04:30:38.396Z,10.73
2022-09-05T04:33:36.279Z,10.85
2022-09-05T04:36:28.236Z,10.75
2022-09-05T04:39:09.424Z,10.81
2022-09-05T04:41:42.246Z,10.84
2022-09-05T04:44:14.847Z,10.85
2022-09-05T04:46:54.484Z,10.94
2022-09-05T04:49:30.427Z,10.98
2022-09-05T04:52:31.461Z,10.90
2022-09-05T04:55:14.557Z,11.03
2022-09-05T04:58:01.366Z,11.12
2022-09-05T05:06:00.673Z,11.02
2022-09-05T05:06:17.339Z,11.05
2022-09-05T05:06:45.582Z,11.19
2022-09-05T05:10:03.277Z,11.20
2022-09-05T05:17:58.393Z,11.20
2022-09-05T05:18:14.228Z,11.25
2022-09-05T05:18:57.582Z,11.30
2022-09-05T05:21:30.138Z,11.25
2022-09-05T05:24:07.902Z,11.28
2022-09-05T05:27:13.328Z,11.37
2022-09-05T05:29:46.007Z,11.40
2022-09-05T05:32:44.866Z,11.51
2022-09-05T05:35:15.016Z,11.50
2022-09-05T05:37:45.676Z,11.61
2022-09-05T05:40:15.220Z,11.75
2022-09-05T05:42:43.213Z,11.64
2022-09-05T05:45:27.898Z,11.73
2022-09-05T05:47:59.949Z,11.75
2022-09-05T05:51:06.441Z,11.84
2022-09-05T05:54:00.946Z,11.93
2022-09-05T05:56:46.324Z,11.84
2022-09-05T05:59:28.027Z,11.88
2022-09-05T06:02:19.652Z,11.88
2022-09-05T06:04:55.440Z,12.03
2022-09-05T06:11:20.534Z,12.01
2022-09-05T06:14:57.752Z,12.11
2022-09-05T06:15:01.052Z,12.40
2022-09-05T06:17:46.514Z,12.49
2022-09-05T06:22:03.987Z,12.65
2022-09-05T06:23:38.672Z,13.26
2022-09-05T06:26:37.757Z,13.66
2022-09-05T06:29:17.566Z,14.21
2022-09-05T06:32:10.481Z,14.39
2022-09-05T06:34:59.995Z,14.24
2022-09-05T06:37:54.494Z,14.24
2022-09-05T06:40:37.245Z,14.31
2022-09-05T06:43:26.124Z,14.34
2022-09-05T06:46:54.321Z,14.34
2022-09-05T06:49:30.303Z,14.34
2022-09-05T06:52:29.202Z,14.43
2022-09-05T06:55:31.205Z,14.53
2022-09-05T06:58:28.038Z,14.99
2022-09-05T07:00:57.103Z,15.57
2022-09-05T07:03:46.716Z,15.89
2022-09-05T07:07:01.495Z,16.38
2022-09-05T07:09:50.874Z,16.57
2022-09-05T07:12:30.235Z,16.52
2022-09-05T07:15:32.502Z,16.14
2022-09-05T07:18:26.683Z,16.52
2022-09-05T07:21:15.792Z,16.69
2022-09-05T07:24:08.959Z,16.78
2022-09-05T07:26:52.538Z,16.89
2022-09-05T07:29:32.796Z,16.87
2022-09-05T07:32:01.373Z,16.91
2022-09-05T07:34:30.160Z,16.78
2022-09-05T07:37:15.561Z,16.76
2022-09-05T07:39:51.774Z,16.94
2022-09-05T07:42:26.511Z,16.96
2022-09-05T07:44:57.111Z,16.77
2022-09-05T07:47:32.676Z,16.87
2022-09-05T07:50:47.204Z,16.59
2022-09-05T07:56:49.702Z,16.71
2022-09-05T07:57:05.170Z,16.79
2022-09-05T07:58:41.279Z,16.90
2022-09-05T08:01:13.015Z,17.17
2022-09-05T08:03:41.491Z,17.02
2022-09-05T08:06:14.381Z,16.83
2022-09-05T08:09:21.380Z,17.28
2022-09-05T08:11:59.959Z,17.42
2022-09-05T08:14:44.934Z,17.55
2022-09-05T08:17:21.063Z,17.63
2022-09-05T08:20:15.868Z,17.78
2022-09-05T08:22:52.270Z,17.71
2022-09-05T08:25:27.447Z,17.69
2022-09-05T08:28:19.588Z,17.96
2022-09-05T08:30:54.048Z,18.13
2022-09-05T08:33:24.439Z,18.21
2022-09-05T08:35:57.770Z,18.14
2022-09-05T08:38:38.737Z,18.05
2022-09-05T08:41:26.030Z,18.14
2022-09-05T08:46:41.199Z,18.43
2022-09-05T08:47:27.707Z,18.86
2022-09-05T08:50:14.123Z,19.09
2022-09-05T08:53:02.230Z,19.20
2022-09-05T08:55:39.023Z,19.49
2022-09-05T08:58:24.187Z,19.80
2022-09-05T09:01:07.457Z,20.00
2022-09-05T09:05:01.018Z,20.18
2022-09-05T09:07:51.535Z,20.33
2022-09-05T09:10:29.362Z,20.20
2022-09-05T09:13:11.089Z,20.54
2022-09-05T09:15:56.633Z,20.95
2022-09-05T09:18:35.842Z,21.24
2022-09-05T09:21:23.271Z,21.14
2022-09-05T09:24:32.789Z,21.14
2022-09-05T09:27:41.707Z,21.56
2022-09-05T09:30:12.262Z,21.97
2022-09-05T09:32:49.366Z,22.01
2022-09-05T09:35:54.831Z,22.12
2022-09-05T09:38:51.533Z,22.41
2022-09-05T09:41:34.062Z,22.46
2022-09-05T09:44:21.154Z,22.51
2022-09-05T09:46:50.754Z,22.54
2022-09-05T09:49:36.760Z,22.79
2022-09-05T09:52:20.606Z,22.62
2022-09-05T09:55:30.384Z,22.94
2022-09-05T09:58:15.242Z,23.09
2022-09-05T10:01:35.437Z,22.94
2022-09-05T10:10:34.326Z,22.72
2022-09-05T10:11:09.345Z,22.51
2022-09-05T10:11:22.648Z,22.82
2022-09-05T10:14:03.953Z,22.60
2022-09-05T10:16:42.093Z,22.56
2022-09-05T10:22:41.110Z,22.43
2022-09-05T10:25:32.399Z,22.64
2022-09-05T10:28:37.821Z,22.24
2022-09-05T10:31:55.568Z,22.35
2022-09-05T10:35:12.935Z,22.56
2022-09-05T10:37:02.717Z,22.99
2022-09-05T10:39:35.429Z,22.67
2022-09-05T10:42:11.114Z,22.70
2022-09-05T10:44:46.523Z,22.96
2022-09-05T10:47:26.300Z,22.92
2022-09-05T10:50:20.774Z,22.71
2022-09-05T10:52:50.442Z,22.90
2022-09-05T10:55:26.167Z,22.84
2022-09-05T10:58:30.430Z,22.84
2022-09-05T11:02:29.997Z,23.22
2022-09-05T11:04:51.854Z,23.03
2022-09-05T11:07:43.935Z,22.84
2022-09-05T11:10:20.366Z,22.76
2022-09-05T11:13:05.879Z,23.06
2022-09-05T11:15:52.899Z,22.63
2022-09-05T11:18:56.912Z,23.18
2022-09-05T11:21:42.243Z,23.23
2022-09-05T11:24:31.528Z,23.34
2022-09-05T11:27:24.602Z,23.36
2022-09-05T11:29:55.976Z,23.14
2022-09-05T11:36:13.348Z,23.33
2022-09-05T11:40:05.248Z,23.56
2022-09-05T11:40:07.554Z,23.26
2022-09-05T11:42:00.466Z,23.66
2022-09-05T11:44:34.765Z,23.55
2022-09-05T11:47:48.802Z,24.05
2022-09-05T11:50:51.815Z,24.45
2022-09-05T11:53:37.144Z,24.00
2022-09-05T11:56:46.108Z,23.57
2022-09-05T11:59:46.779Z,23.96
2022-09-05T12:02:32.730Z,23.95
2022-09-05T12:05:48.335Z,24.19
2022-09-05T12:08:38.160Z,23.82
2022-09-05T12:11:22.928Z,23.55
2022-09-05T12:14:21.376Z,23.29
2022-09-05T12:16:55.202Z,23.59
2022-09-05T12:19:47.313Z,23.17
2022-09-05T12:22:23.573Z,23.31
2022-09-05T12:25:26.431Z,23.57
2022-09-05T12:29:27.576Z,23.99
2022-09-05T12:32:19.647Z,24.15
2022-09-05T12:36:06.370Z,24.18
2022-09-05T12:40:43.288Z,24.56
2022-09-05T12:40:57.496Z,24.54
2022-09-05T12:43:49.683Z,24.91
2022-09-05T12:45:47.657Z,24.88
2022-09-05T12:48:39.253Z,24.58
2022-09-05T12:51:18.038Z,24.66
2022-09-05T12:54:01.812Z,24.88
2022-09-05T12:58:37.299Z,24.50
2022-09-05T13:03:02.089Z,24.18
2022-09-05T13:03:14.741Z,23.89
2022-09-05T13:05:17.143Z,24.24
2022-09-05T13:07:48.913Z,24.37
2022-09-05T13:14:14.503Z,24.19
2022-09-05T13:14:52.378Z,24.28
2022-09-05T13:16:03.474Z,24.45
2022-09-05T13:18:39.191Z,24.36
2022-09-05T13:21:27.188Z,24.68
2022-09-05T13:24:05.289Z,24.78
2022-09-05T13:26:41.751Z,24.31
2022-09-05T13:29:21.665Z,24.37
2022-09-05T13:38:11.574Z,24.61
2022-09-05T13:38:21.300Z,24.76
2022-09-05T13:38:47.506Z,24.55
2022-09-05T13:40:49.404Z,24.65
2022-09-05T13:43:21.867Z,24.59
2022-09-05T13:46:18.907Z,24.10
2022-09-05T13:51:51.217Z,24.26
2022-09-05T13:54:30.560Z,24.23
2022-09-05T13:57:32.749Z,24.34
2022-09-05T14:00:07.026Z,24.19
2022-09-05T14:03:37.673Z,24.42
2022-09-05T14:06:47.081Z,24.26
2022-09-05T14:09:41.889Z,24.19
2022-09-05T14:12:36.975Z,23.84
2022-09-05T14:15:39.227Z,23.58
2022-09-05T14:18:53.055Z,23.39
2022-09-05T14:21:20.749Z,22.91
2022-09-05T14:24:10.982Z,23.01
2022-09-05T14:26:46.024Z,23.19
2022-09-05T14:29:18.771Z,23.27
2022-09-05T14:37:35.120Z,23.41
2022-09-05T14:37:49.991Z,23.29
2022-09-05T14:38:35.721Z,23.07
2022-09-05T14:41:42.859Z,23.08
2022-09-05T14:44:51.502Z,22.88
2022-09-05T14:47:47.413Z,22.87
2022-09-05T14:50:30.085Z,22.40
2022-09-05T14:57:10.205Z,22.25
2022-09-05T15:02:51.985Z,22.38
2022-09-05T15:02:52.182Z,22.37
2022-09-05T15:04:56.402Z,22.36
2022-09-05T15:07:34.392Z,22.35
2022-09-05T15:12:17.890Z,22.23
2022-09-05T15:13:05.610Z,22.30
2022-09-05T15:15:39.301Z,22.29
2022-09-05T15:18:32.115Z,22.23
2022-09-05T15:21:33.932Z,22.13
2022-09-05T15:24:14.424Z,22.17
2022-09-05T15:26:57.257Z,22.28
2022-09-05T15:29:29.473Z,22.18
2022-09-05T15:32:26.013Z,22.49
2022-09-05T15:34:55.472Z,22.41
2022-09-05T15:37:29.350Z,22.69
2022-09-05T15:40:22.645Z,22.78
2022-09-05T15:43:05.186Z,22.82
2022-09-05T15:45:39.706Z,22.66
2022-09-05T15:48:15.401Z,22.57
2022-09-05T15:50:48.611Z,22.43
2022-09-05T15:53:22.987Z,22.43
2022-09-05T15:56:00.268Z,22.38
2022-09-05T15:58:28.539Z,22.16
2022-09-05T16:01:45.077Z,22.41
2022-09-05T16:05:57.417Z,22.38
2022-09-05T16:10:39.375Z,22.31
2022-09-05T16:10:49.483Z,22.38
2022-09-05T16:18:34.245Z,22.11
2022-09-05T16:23:14.288Z,22.00
2022-09-05T16:23:26.992Z,21.76
2022-09-05T16:24:04.948Z,21.71
2022-09-05T16:26:38.535Z,21.69
2022-09-05T16:29:25.898Z,21.68
2022-09-05T16:31:59.377Z,21.54
2022-09-05T16:35:10.985Z,21.47
2022-09-05T16:37:45.006Z,21.44
2022-09-05T16:40:17.741Z,21.40
2022-09-05T16:43:18.190Z,21.34
2022-09-05T16:45:52.566Z,21.21
2022-09-05T16:48:40.995Z,21.12
2022-09-05T16:51:36.385Z,21.13
2022-09-05T16:54:29.247Z,21.06
2022-09-05T16:57:00.477Z,21.04
2022-09-05T16:59:30.040Z,20.72
2022-09-05T17:02:06.587Z,20.69
2022-09-05T17:05:15.316Z,20.72
2022-09-05T17:08:03.881Z,20.55
2022-09-05T17:10:42.630Z,20.37
2022-09-05T17:13:16.596Z,20.50
2022-09-05T17:15:52.135Z,20.30
2022-09-05T17:18:24.192Z,20.27
2022-09-05T17:20:56.796Z,20.15
2022-09-05T17:27:35.483Z,19.84
2022-09-05T17:29:23.472Z,19.66
2022-09-05T17:32:34.945Z,19.50
2022-09-05T17:35:20.298Z,19.30
2022-09-05T17:38:11.651Z,19.18
2022-09-05T17:40:59.317Z,19.09
2022-09-05T17:43:32.998Z,18.94
2022-09-05T17:46:18.868Z,18.86
2022-09-05T17:49:06.060Z,18.73
2022-09-05T17:51:50.800Z,18.46
2022-09-05T17:54:37.683Z,18.59
2022-09-05T17:57:29.283Z,18.38
2022-09-05T18:00:02.299Z,18.11
2022-09-05T18:02:54.313Z,18.14
2022-09-05T18:05:57.587Z,18.00
2022-09-05T18:08:44.943Z,18.00
2022-09-05T18:11:54.584Z,17.74
2022-09-05T18:14:38.050Z,17.55
2022-09-05T18:17:38.205Z,17.48
2022-09-05T18:20:11.500Z,17.41
2022-09-05T18:22:47.292Z,17.28
2022-09-05T18:26:03.351Z,17.27
2022-09-05T18:28:39.520Z,17.14
2022-09-05T18:31:40.838Z,17.11
2022-09-05T18:34:14.813Z,16.89
2022-09-05T18:36:42.178Z,17.07
2022-09-05T18:39:24.685Z,16.78
2022-09-05T18:42:09.154Z,16.78
2022-09-05T18:44:59.634Z,16.92
2022-09-05T18:47:54.157Z,16.73
2022-09-05T18:50:32.182Z,16.65
2022-09-05T18:53:08.663Z,16.57
2022-09-05T18:56:14.287Z,16.36
2022-09-05T18:58:28.312Z,16.29
2022-09-05T19:00:55.568Z,16.52
2022-09-05T19:03:27.010Z,16.64
2022-09-05T19:06:36.602Z,16.52
2022-09-05T19:08:53.184Z,16.46
2022-09-05T19:11:30.727Z,16.38
2022-09-05T19:14:26.369Z,16.24
2022-09-05T19:17:14.027Z,16.13
2022-09-05T19:20:31.846Z,16.22
2022-09-05T19:23:13.286Z,16.08
2022-09-05T19:25:46.555Z,16.07
2022-09-05T19:35:54.411Z,16.12
2022-09-05T19:36:49.129Z,16.08
2022-09-05T19:37:06.989Z,16.10
2022-09-05T19:37:30.148Z,15.91
2022-09-05T19:44:32.414Z,15.74
2022-09-05T19:47:25.876Z,15.74
2022-09-05T19:47:55.626Z,15.83
2022-09-05T19:48:25.848Z,15.66
2022-09-05T19:51:16.830Z,15.62
2022-09-05T19:53:54.070Z,15.55
2022-09-05T19:56:44.568Z,15.40
2022-09-05T19:59:15.662Z,15.37
2022-09-05T20:01:43.233Z,15.45
2022-09-05T20:04:19.466Z,15.21
2022-09-05T20:06:47.951Z,15.22
2022-09-05T20:09:19.976Z,15.27
2022-09-05T20:11:52.633Z,15.14
2022-09-05T20:14:34.675Z,15.08
2022-09-05T20:17:20.601Z,14.83
2022-09-05T20:19:47.837Z,14.84
2022-09-05T20:22:47.457Z,14.70
2022-09-05T20:25:36.006Z,14.67
2022-09-05T20:28:35.892Z,14.68
2022-09-05T20:31:08.651Z,14.56
2022-09-05T20:34:04.122Z,14.56
2022-09-05T20:43:12.375Z,14.53
2022-09-05T20:43:14.579Z,14.50
2022-09-05T20:43:28.731Z,14.28
2022-09-05T20:45:42.014Z,14.31
2022-09-05T20:54:05.886Z,14.28
2022-09-05T20:54:15.235Z,14.31
2022-09-05T20:54:25.732Z,14.19
2022-09-05T20:56:48.089Z,14.17
2022-09-05T20:59:34.554Z,14.08
2022-09-05T21:02:07.215Z,14.08
2022-09-05T21:04:38.447Z,14.36
2022-09-05T21:07:19.634Z,14.22
2022-09-05T21:09:57.656Z,14.16
2022-09-05T21:12:34.664Z,14.00
2022-09-05T21:15:31.809Z,13.92
2022-09-05T21:17:52.486Z,14.01
2022-09-05T21:20:24.493Z,13.76
2022-09-05T21:22:54.188Z,13.87
2022-09-05T21:25:25.990Z,13.79
2022-09-05T21:28:23.706Z,13.66
2022-09-05T21:31:04.485Z,13.62
2022-09-05T21:33:45.066Z,13.53
2022-09-05T21:36:12.636Z,13.51
2022-09-05T21:38:41.400Z,13.45
2022-09-05T21:41:08.275Z,13.50
2022-09-05T21:47:40.324Z,13.41
2022-09-05T21:47:48.044Z,13.32
2022-09-05T21:49:14.183Z,13.14
2022-09-05T21:51:40.875Z,13.30
2022-09-05T21:59:22.333Z,13.47
2022-09-05T21:59:24.825Z,13.26
2022-09-05T22:00:05.501Z,13.12
2022-09-05T22:02:37.573Z,13.04
2022-09-05T22:05:04.779Z,13.11
2022-09-05T22:07:35.873Z,13.01
2022-09-05T22:10:04.344Z,12.91
2022-09-05T22:12:37.436Z,12.95
2022-09-05T22:15:27.694Z,12.87
2022-09-05T22:18:09.742Z,12.74
2022-09-05T22:20:46.443Z,12.72
2022-09-05T22:23:30.378Z,12.63
2022-09-05T22:26:00.908Z,12.70
2022-09-05T22:28:33.723Z,12.63
2022-09-05T22:31:07.577Z,12.59
2022-09-05T22:33:38.802Z,12.74
2022-09-05T22:36:08.072Z,12.82
2022-09-05T22:38:37.954Z,12.57
2022-09-05T22:41:06.182Z,12.64
2022-09-05T22:43:35.302Z,12.56
2022-09-05T22:46:03.668Z,12.63
2022-09-05T22:48:34.017Z,12.79
2022-09-05T22:51:04.267Z,12.67
2022-09-05T22:53:30.956Z,12.85
2022-09-05T22:56:00.204Z,12.76
2022-09-05T22:58:27.372Z,12.70
2022-09-05T23:00:54.426Z,12.55
2022-09-05T23:03:21.257Z,12.70
2022-09-05T23:05:51.155Z,12.65
2022-09-05T23:08:17.794Z,12.50
2022-09-05T23:10:44.424Z,12.59
2022-09-05T23:13:11.422Z,12.50
2022-09-05T23:15:38.458Z,12.50
2022-09-05T23:18:08.337Z,12.64
2022-09-05T23:20:35.735Z,12.62
2022-09-05T23:23:06.511Z,12.51
2022-09-05T23:25:34.186Z,12.57
2022-09-05T23:28:08.493Z,12.38
2022-09-05T23:30:35.957Z,12.39
2022-09-05T23:33:08.120Z,12.49
2022-09-05T23:35:37.802Z,12.46
2022-09-05T23:38:09.280Z,12.55
2022-09-05T23:40:36.112Z,12.49
2022-09-05T23:43:03.399Z,12.56
2022-09-05T23:45:32.355Z,12.38
2022-09-05T23:47:59.275Z,12.43
2022-09-05T23:50:27.295Z,12.49
2022-09-05T23:52:53.948Z,12.40
2022-09-05T23:55:23.231Z,12.58
2022-09-05T23:57:50.013Z,12.50
